Flight Track Log - Related Links

Times and Time Zones

All times are in EDT time to prevent confusion due to time zone crossing. See the DAL2359 flight status page for this flight to view local times or setup timezone preferences in your user account.

Time Position Orientation Groundspeed Altitude Reporting Facility
EDT Latitude Longitude Course Direction KTS MPH feet Rate Location/Type
Sun 07:41:12 AM 38.9000 -77.0667 270° West 180 207 2,300  Level Potomac TRACON
Sun 07:42:06 AM 38.9333 -77.1167 311° West 247 284 4,700 2,733 Climbing Potomac TRACON
Sun 07:42:53 AM 38.9761 -77.1697 316° Northwest 250 288 6,900 3,252 Climbing Washington Center
Sun 07:43:00 AM 38.8500 -77.4696 270° West  Level FlightAware Approximate
Sun 07:43:53 AM 38.9769 -77.2550 271° West 243 280 10,500  Level Washington Center
Sun 07:44:00 AM 38.8500 -77.6151 270° West  Level FlightAware Approximate
Sun 07:44:55 AM 38.9672 -77.3456 262° West 280 322 12,200  Level Washington Center
Sun 07:45:00 AM 38.8500 -77.7605 270° West  Level FlightAware Approximate
Sun 07:45:53 AM 38.9531 -77.4547 261° West 305 351 15,000  Level Washington Center
Sun 07:46:00 AM 38.8501 -77.9059 270° West  Level FlightAware Approximate
Sun 07:46:53 AM 38.9386 -77.5825 262° West 323 372 17,400  Level Washington Center
Sun 07:47:54 AM 38.9242 -77.6917 260° West 340 391 19,300 2,182 Climbing Washington Center
Sun 07:48:54 AM 38.9050 -77.8297 260° West 352 405 21,800 2,132 Climbing Washington Center
Sun 07:49:55 AM 38.8881 -77.9572 260° West 357 411 23,600 1,765 Climbing Washington Center
Sun 07:50:53 AM 38.8708 -78.0847 260° West 368 423 25,300 1,750 Climbing Washington Center
Sun 07:51:55 AM 38.8536 -78.2172 261° West 373 429 27,100 1,650 Climbing Washington Center
Sun 07:52:53 AM 38.8506 -78.3478 268° West 373 429 28,600 1,412 Climbing Washington Center
Sun 07:53:54 AM 38.8494 -78.4864 269° West 378 435 29,900 1,230 Climbing Washington Center
Sun 07:54:55 AM 38.8503 -78.6225 270° West 383 441 31,100 1,462 Climbing Washington Center
Sun 07:55:53 AM 38.8467 -78.7608 268° West 383 441 32,800 1,450 Climbing Washington Center
Sun 07:56:55 AM 38.8453 -78.8914 269° West 383 441 34,000 600 Climbing Washington Center
Sun 07:57:53 AM 38.8436 -79.0272 269° West 383 441 34,000  Level Washington Center
Sun 07:58:54 AM 38.8394 -79.1631 268° West 383 441 34,000  Level Washington Center
Sun 07:59:55 AM 38.8397 -79.2964 270° West 383 441 34,000  Level Washington Center
Sun 08:00:53 AM 38.8375 -79.4347 269° West 383 441 34,000  Level Washington Center
Sun 08:01:54 AM 38.8350 -79.5706 269° West 383 441 34,000  Level Washington Center
Sun 08:02:55 AM 38.8350 -79.6986 270° West 392 451 34,000  Level Washington Center
Sun 08:03:53 AM 38.8297 -79.8503 267° West 392 451 34,000  Level Washington Center
Sun 08:04:54 AM 38.8247 -79.9858 267° West 387 445 34,000  Level Washington Center
Sun 08:05:55 AM 38.8219 -80.1214 269° West 382 440 34,000  Level Washington Center
Sun 08:07:18 AM 38.8153 -80.2950 267° West 381 438 34,000  Level Indianapolis Center
Sun 08:08:19 AM 38.8111 -80.4314 268° West 381 438 34,000 49 Level Indianapolis Center
Sun 08:09:20 AM 38.8061 -80.5683 267° West 382 440 34,100 738 Climbing Indianapolis Center
Sun 08:10:21 AM 38.8031 -80.7036 268° West 382 440 35,500 934 Climbing Indianapolis Center
Sun 08:11:22 AM 38.7983 -80.8361 267° West 378 435 36,000 244 Climbing Indianapolis Center
Sun 08:12:24 AM 38.7944 -80.9689 268° West 377 434 36,000  Level Indianapolis Center
Sun 08:13:25 AM 38.7889 -81.1283 267° West 376 433 36,000  Level Indianapolis Center
Sun 08:14:26 AM 38.7839 -81.2628 267° West 376 433 36,000  Level Indianapolis Center
Sun 08:15:27 AM 38.7792 -81.3958 267° West 376 433 36,000  Level Indianapolis Center
Sun 08:16:28 AM 38.7736 -81.5319 267° West 376 433 36,000  Level Indianapolis Center
Sun 08:17:29 AM 38.7686 -81.6675 267° West 376 433 36,000  Level Indianapolis Center
Sun 08:18:31 AM 38.7642 -81.7947 267° West 379 436 36,000  Level Indianapolis Center
Sun 08:19:32 AM 38.7581 -81.9339 267° West 387 445 36,000  Level Indianapolis Center
Sun 08:20:33 AM 38.7619 -82.1022 272° West 392 451 36,000  Level Indianapolis Center
Sun 08:21:34 AM 38.7767 -82.2394 278° West 393 452 36,000  Level Indianapolis Center
Sun 08:22:36 AM 38.7925 -82.3786 278° West 393 452 36,000  Level Indianapolis Center
Sun 08:23:37 AM 38.8069 -82.5172 278° West 393 452 36,000  Level Indianapolis Center
Sun 08:24:38 AM 38.8219 -82.6572 278° West 393 452 36,000  Level Indianapolis Center
Sun 08:25:39 AM 38.8358 -82.7950 277° West 393 452 36,000  Level Indianapolis Center
Sun 08:26:40 AM 38.8503 -82.9339 278° West 393 452 36,000  Level Indianapolis Center
Sun 08:27:42 AM 38.8633 -83.0747 277° West 393 452 36,000  Level Indianapolis Center
Sun 08:28:43 AM 38.8775 -83.2083 278° West 394 453 36,000  Level Indianapolis Center
Sun 08:29:44 AM 38.8939 -83.3767 277° West 395 455 36,000  Level Indianapolis Center
Sun 08:30:45 AM 38.9075 -83.5192 277° West 395 455 36,000  Level Indianapolis Center
Sun 08:31:47 AM 38.9217 -83.6600 277° West 396 456 36,000  Level Indianapolis Center
Sun 08:32:48 AM 38.9342 -83.8011 277° West 396 456 36,000  Level Indianapolis Center
Sun 08:33:49 AM 38.9472 -83.9433 277° West 397 457 36,000  Level Indianapolis Center
Sun 08:34:50 AM 38.9608 -84.0850 277° West 397 457 36,000  Level Indianapolis Center
Sun 08:35:52 AM 38.9736 -84.2281 277° West 398 458 36,000  Level Indianapolis Center
Sun 08:36:53 AM 38.9856 -84.3683 276° West 399 459 36,000  Level Indianapolis Center
Sun 08:37:54 AM 38.9986 -84.5119 277° West 400 460 36,000  Level Indianapolis Center
Sun 08:38:56 AM 39.0108 -84.6558 276° West 405 466 36,000  Level Indianapolis Center
Sun 08:39:57 AM 39.0389 -84.8250 282° West 404 465 36,000  Level Indianapolis Center
Sun 08:40:58 AM 39.0658 -84.9569 285° West 405 466 36,000  Level Indianapolis Center
Sun 08:42:00 AM 39.0942 -85.0975 285° West 405 466 36,000  Level Indianapolis Center
Sun 08:43:01 AM 39.1208 -85.2378 284° West 405 466 36,000  Level Indianapolis Center
Sun 08:44:03 AM 39.1472 -85.3797 284° West 405 466 36,000  Level Indianapolis Center
Sun 08:45:04 AM 39.1739 -85.5197 284° West 405 466 36,000  Level Indianapolis Center
Sun 08:46:06 AM 39.2014 -85.6611 284° West 405 466 36,000  Level Indianapolis Center
Sun 08:47:07 AM 39.2319 -85.8311 283° West 405 466 36,000  Level Indianapolis Center
Sun 08:48:09 AM 39.2600 -85.9728 284° West 405 466 36,000  Level Indianapolis Center
Sun 08:49:10 AM 39.2856 -86.1156 283° West 405 466 36,000  Level Indianapolis Center
Sun 08:50:12 AM 39.3122 -86.2583 284° West 405 466 36,000  Level Indianapolis Center
Sun 08:51:13 AM 39.3383 -86.4000 283° West 405 466 36,000  Level Indianapolis Center
Sun 08:52:15 AM 39.3639 -86.5431 283° West 405 466 36,000  Level Indianapolis Center
Sun 08:53:16 AM 39.3894 -86.6850 283° West 405 466 36,000  Level Indianapolis Center
Sun 08:54:18 AM 39.4150 -86.8286 283° West 405 466 36,000  Level Indianapolis Center
Sun 08:55:19 AM 39.4408 -86.9717 283° West 406 467 36,000  Level Indianapolis Center
Sun 08:56:21 AM 39.4658 -87.1144 283° West 406 467 36,000  Level Indianapolis Center
Sun 08:57:22 AM 39.4956 -87.2867 283° West 406 467 36,000  Level Indianapolis Center
Sun 08:58:24 AM 39.5186 -87.4297 282° West 406 467 36,000  Level Indianapolis Center
Sun 08:59:25 AM 39.5417 -87.5731 282° West 406 467 36,000  Level Indianapolis Center
Sun 09:00:27 AM 39.5639 -87.7167 281° West 406 467 36,000  Level Indianapolis Center
Sun 09:01:28 AM 39.5875 -87.8617 282° West 407 468 36,000  Level Indianapolis Center
Sun 09:02:30 AM 39.6094 -88.0058 281° West 407 468 36,000  Level Indianapolis Center
Sun 09:03:31 AM 39.6311 -88.1503 281° West 407 468 36,000  Level Indianapolis Center
Sun 09:04:33 AM 39.6539 -88.2953 282° West 407 468 36,000  Level Indianapolis Center
Sun 09:05:32 AM 39.6736 -88.4364 280° West 409 471 36,000  Level Kansas City Center
Sun 09:06:33 AM 39.7019 -88.6103 282° West 409 471 36,000  Level Kansas City Center
Sun 09:07:34 AM 39.7228 -88.7561 281° West 409 471 36,000  Level Kansas City Center
Sun 09:08:35 AM 39.7428 -88.9044 280° West 412 474 36,000  Level Kansas City Center
Sun 09:09:37 AM 39.7567 -89.0519 277° West 412 474 36,000  Level Kansas City Center
Sun 09:10:38 AM 39.7706 -89.2019 277° West 413 475 36,000  Level Kansas City Center
Sun 09:11:39 AM 39.7833 -89.3500 276° West 413 475 36,000  Level Kansas City Center
Sun 09:12:40 AM 39.7969 -89.5017 277° West 415 478 36,000  Level Kansas City Center
Sun 09:13:41 AM 39.8108 -89.6533 277° West 417 480 36,000  Level Kansas City Center
Sun 09:14:42 AM 39.8242 -89.8056 277° West 418 481 36,000  Level Kansas City Center
Sun 09:15:43 AM 39.8372 -89.9583 276° West 421 484 36,000  Level Kansas City Center
Sun 09:16:44 AM 39.8497 -90.1100 276° West 421 484 36,000  Level Kansas City Center
Sun 09:17:45 AM 39.8625 -90.2628 276° West 421 484 36,000  Level Kansas City Center
Sun 09:18:46 AM 39.8758 -90.4167 276° West 422 486 36,000  Level Kansas City Center
Sun 09:19:47 AM 39.8878 -90.5694 276° West 423 487 36,000  Level Kansas City Center
Sun 09:20:48 AM 39.8997 -90.7228 276° West 423 487 36,000  Level Kansas City Center
Sun 09:21:50 AM 39.9136 -90.9081 276° West 424 488 36,000  Level Kansas City Center
Sun 09:22:51 AM 39.9247 -91.0436 276° West 428 493 36,000  Level Kansas City Center
Sun 09:23:52 AM 39.9350 -91.1964 275° West 428 493 36,000  Level Kansas City Center
Sun 09:24:53 AM 39.9506 -91.3783 276° West 427 491 36,000  Level Kansas City Center
Sun 09:25:54 AM 39.9611 -91.5306 275° West 426 490 36,000  Level Kansas City Center
Sun 09:26:55 AM 39.9725 -91.6811 276° West 425 489 36,000  Level Kansas City Center
Sun 09:27:56 AM 39.9828 -91.8317 275° West 423 487 36,000  Level Kansas City Center
Sun 09:28:57 AM 39.9919 -91.9819 275° West 421 484 36,000  Level Kansas City Center
Sun 09:29:59 AM 40.0053 -92.1339 277° West 421 484 36,000  Level Kansas City Center
Sun 09:31:00 AM 40.0511 -92.2761 293° West 425 489 36,000  Level Kansas City Center
Sun 09:32:01 AM 40.1000 -92.4233 294° West 425 489 36,000  Level Kansas City Center
Sun 09:33:02 AM 40.1550 -92.5833 294° West 427 491 36,000  Level Kansas City Center
Sun 09:34:03 AM 40.2031 -92.7231 294° West 434 499 36,000  Level Kansas City Center
Sun 09:35:04 AM 40.2486 -92.8603 294° West 433 498 36,000  Level Kansas City Center
Sun 09:36:05 AM 40.3028 -93.0192 294° West 433 498 36,000  Level Kansas City Center
Sun 09:37:07 AM 40.3528 -93.1683 294° West 431 496 36,000  Level Kansas City Center
Sun 09:38:08 AM 40.4011 -93.3139 294° West 432 497 36,000  Level Kansas City Center
Sun 09:39:09 AM 40.4481 -93.4578 293° West 432 497 36,000  Level Kansas City Center
Sun 09:40:10 AM 40.4964 -93.6028 294° West 433 498 36,000  Level Kansas City Center
Sun 09:41:12 AM 40.5422 -93.7506 292° West 436 502 36,000  Level Minneapolis Center
Sun 09:42:12 AM 40.6025 -93.8900 300° West 439 505 36,000  Level Minneapolis Center
Sun 09:43:12 AM 40.6867 -94.0150 312° West 454 522 36,000  Level Minneapolis Center
Sun 09:44:13 AM 40.7667 -94.1411 310° West 454 522 36,000  Level Minneapolis Center
Sun 09:45:15 AM 40.8467 -94.2675 310° West 454 522 36,000  Level Minneapolis Center
Sun 09:46:16 AM 40.9283 -94.3936 311° West 454 522 36,000  Level Minneapolis Center
Sun 09:47:17 AM 41.0089 -94.5206 310° West 454 522 36,000  Level Minneapolis Center
Sun 09:48:18 AM 41.1064 -94.6708 311° West 454 522 36,000  Level Minneapolis Center
Sun 09:49:19 AM 41.1894 -94.7961 311° West 454 522 36,000  Level Minneapolis Center
Sun 09:50:19 AM 41.2683 -94.9219 310° West 453 521 36,000  Level Minneapolis Center
Sun 09:51:22 AM 41.3000 -95.0731 286° West 433 498 36,000  Level Minneapolis Center
Sun 09:52:22 AM 41.3347 -95.2208 287° West 421 484 36,000  Level Minneapolis Center
Sun 09:53:22 AM 41.3689 -95.3714 287° West 425 489 36,000  Level Minneapolis Center
Sun 09:54:23 AM 41.4044 -95.5222 287° West 425 489 36,000  Level Minneapolis Center
Sun 09:55:25 AM 41.4408 -95.6772 287° West 429 494 36,000  Level Minneapolis Center
Sun 09:56:27 AM 41.4789 -95.8319 288° West 436 502 36,000  Level Minneapolis Center
Sun 09:57:27 AM 41.5139 -95.9897 287° West 439 505 36,000  Level Minneapolis Center
Sun 09:58:28 AM 41.5244 -96.1506 275° West 437 503 36,000  Level Minneapolis Center
Sun 09:59:30 AM 41.5356 -96.3108 275° West 432 497 36,000  Level Minneapolis Center
Sun 10:00:31 AM 41.5458 -96.4903 274° West 435 501 36,000  Level Minneapolis Center
Sun 10:01:32 AM 41.5553 -96.6519 275° West 437 503 36,000  Level Minneapolis Center
Sun 10:02:33 AM 41.5636 -96.8181 274° West 444 511 36,000  Level Minneapolis Center
Sun 10:03:34 AM 41.5722 -96.9814 274° West 444 511 36,000  Level Minneapolis Center
Sun 10:04:35 AM 41.5811 -97.1467 274° West 445 512 36,000  Level Minneapolis Center
Sun 10:05:35 AM 41.5897 -97.3167 274° West 453 521 36,000  Level Minneapolis Center
Sun 10:06:36 AM 41.5983 -97.4844 274° West 453 521 36,000  Level Minneapolis Center
Sun 10:07:37 AM 41.6061 -97.6531 274° West 454 522 36,000  Level Minneapolis Center
Sun 10:08:39 AM 41.6150 -97.8600 273° West 459 528 36,000  Level Minneapolis Center
Sun 10:09:40 AM 41.6236 -98.0306 274° West 460 529 36,000  Level Minneapolis Center
Sun 10:10:40 AM 41.6308 -98.1844 274° West 461 531 36,000  Level Minneapolis Center
Sun 10:11:40 AM 41.6383 -98.3600 273° West 471 542 36,000  Level Minneapolis Center
Sun 10:12:43 AM 41.6469 -98.5722 273° West 475 547 36,000  Level Minneapolis Center
Sun 10:13:43 AM 41.6539 -98.7486 273° West 476 548 36,000  Level Minneapolis Center
Sun 10:14:45 AM 41.6603 -98.9225 273° West 475 547 36,000  Level Minneapolis Center
Sun 10:15:45 AM 41.6658 -99.0978 272° West 475 547 36,000  Level Minneapolis Center
Sun 10:16:45 AM 41.6733 -99.2750 273° West 476 548 36,000 62 Level Minneapolis Center
Sun 10:17:22 AM 41.6758 -99.3831 272° West 479 551 36,100 1,163 Climbing Denver Center
Sun 10:18:23 AM 41.6819 -99.5583 273° West 479 551 37,900 934 Climbing Denver Center
Sun 10:19:24 AM 41.6867 -99.7247 272° West 457 526 38,000 -537 Climbing Denver Center
Sun 10:20:26 AM 41.6911 -99.9042 272° West 456 525 36,800 -976 Descending Denver Center
Sun 10:21:27 AM 41.6953 -100.1000 272° West 469 540 36,000 -390 Descending Denver Center
Sun 10:22:29 AM 41.7011 -100.2739 273° West 483 556 36,000  Level Denver Center
Sun 10:23:30 AM 41.7056 -100.4739 272° West 484 557 36,000  Level Denver Center
Sun 10:24:32 AM 41.7092 -100.6447 272° West 484 557 36,000  Level Denver Center
Sun 10:25:33 AM 41.7122 -100.8136 271° West 483 556 36,000  Level Denver Center
Sun 10:26:35 AM 41.7164 -101.0125 272° West 481 554 36,000  Level Denver Center
Sun 10:27:36 AM 41.7186 -101.1847 271° West 484 557 36,000  Level Denver Center
Sun 10:28:38 AM 41.7222 -101.3833 271° West 483 556 36,000  Level Denver Center
Sun 10:29:39 AM 41.7247 -101.5536 271° West 480 552 36,000  Level Denver Center
Sun 10:30:41 AM 41.7269 -101.7542 271° West 485 558 36,000  Level Denver Center
Sun 10:31:43 AM 41.7294 -101.9278 271° West 489 563 36,000  Level Denver Center
Sun 10:32:44 AM 41.7308 -102.1003 271° West 486 559 36,000  Level Denver Center
Sun 10:33:46 AM 41.7378 -102.3014 273° West 486 559 36,000  Level Denver Center
Sun 10:34:48 AM 41.7483 -102.4800 275° West 486 559 36,000  Level Denver Center
Sun 10:35:49 AM 41.7561 -102.6825 273° West 486 559 36,000  Level Denver Center
Sun 10:36:51 AM 41.7633 -102.8519 273° West 480 552 36,000  Level Denver Center
Sun 10:37:53 AM 41.7708 -103.0219 273° West 479 551 36,000  Level Denver Center
Sun 10:38:55 AM 41.7783 -103.2228 273° West 480 552 36,000  Level Denver Center
Sun 10:39:57 AM 41.7853 -103.3925 273° West 480 552 36,000  Level Denver Center
Sun 10:40:59 AM 41.7928 -103.5919 273° West 480 552 36,000  Level Denver Center
Sun 10:42:00 AM 41.7986 -103.7617 273° West 479 551 36,000  Level Denver Center
Sun 10:43:02 AM 41.8053 -103.9606 273° West 478 550 36,000  Level Denver Center
Sun 10:44:04 AM 41.8108 -104.1328 273° West 480 552 36,000  Level Denver Center
Sun 10:45:06 AM 41.8156 -104.3028 272° West 479 551 36,000  Level Denver Center
Sun 10:46:08 AM 41.8211 -104.5031 272° West 479 551 36,000  Level Denver Center
Sun 10:47:10 AM 41.8256 -104.6717 272° West 475 547 36,000  Level Denver Center
Sun 10:48:12 AM 41.8303 -104.8633 272° West 464 534 36,000  Level Denver Center
Sun 10:49:13 AM 41.8344 -105.0303 272° West 464 534 36,000  Level Denver Center
Sun 10:50:15 AM 41.8400 -105.2272 272° West 469 540 36,000  Level Denver Center
Sun 10:51:17 AM 41.8431 -105.3947 271° West 469 540 36,000  Level Denver Center
Sun 10:52:19 AM 41.8469 -105.5633 272° West 470 541 36,000  Level Denver Center
Sun 10:53:22 AM 41.8500 -105.7592 271° West 471 542 36,000  Level Denver Center
Sun 10:54:23 AM 41.8528 -105.9278 271° West 471 542 36,000  Level Denver Center
Sun 10:55:25 AM 41.8575 -106.1206 272° West 469 540 36,000  Level Denver Center
Sun 10:56:27 AM 41.8589 -106.2836 271° West 460 529 36,000  Level Denver Center
Sun 10:57:29 AM 41.8617 -106.4750 271° West 460 529 36,000  Level Denver Center
Sun 10:58:31 AM 41.8625 -106.6536 270° West 460 529 36,000  Level Denver Center
Sun 10:59:33 AM 41.8653 -106.8194 271° West 462 532 36,000  Level Denver Center
Sun 11:00:35 AM 41.8667 -107.0111 271° West 462 532 36,000  Level Denver Center
Sun 11:01:37 AM 41.8689 -107.1725 271° West 456 525 36,000  Level Denver Center
Sun 11:02:39 AM 41.8672 -107.3603 269° West 453 521 36,000  Level Denver Center
Sun 11:03:41 AM 41.8700 -107.5242 271° West 457 526 36,000  Level Denver Center
Sun 11:04:43 AM 41.8697 -107.7114 270° West 455 524 36,000  Level Denver Center
Sun 11:05:45 AM 41.8694 -107.8719 270° West 454 522 36,000  Level Denver Center
Sun 11:06:47 AM 41.8697 -108.0567 270° West 449 517 36,000  Level Denver Center
Sun 11:07:49 AM 41.8697 -108.2156 270° West 449 517 36,000  Level Denver Center
Sun 11:08:51 AM 41.8681 -108.3739 269° West 448 516 36,000  Level Denver Center
Sun 11:09:54 AM 41.8678 -108.5603 270° West 448 516 36,000  Level Denver Center
Sun 11:11:21 AM 41.8656 -108.7972 269° West 448 516 36,000  Level Salt Lake Center
Sun 11:12:22 AM 41.8636 -108.9800 269° West 446 513 36,000  Level Salt Lake Center
Sun 11:13:24 AM 41.8611 -109.1381 269° West 446 513 36,000  Level Salt Lake Center
Sun 11:14:26 AM 41.8600 -109.2967 270° West 446 513 36,000  Level Salt Lake Center
Sun 11:15:27 AM 41.8572 -109.4806 269° West 446 513 36,000  Level Salt Lake Center
Sun 11:16:29 AM 41.8544 -109.6397 269° West 446 513 36,000  Level Salt Lake Center
Sun 11:17:31 AM 41.8522 -109.8256 269° West 447 514 36,000 -146 Level Salt Lake Center
Sun 11:18:32 AM 41.8492 -109.9833 269° West 447 514 35,700 -780 Descending Salt Lake Center
Sun 11:19:34 AM 41.8456 -110.1650 269° West 441 507 34,400 -1,113 Descending Salt Lake Center
Sun 11:20:36 AM 41.8433 -110.3219 269° West 441 507 33,400 -1,024 Descending Salt Lake Center
Sun 11:21:37 AM 41.8392 -110.5047 268° West 441 507 32,300 -1,024 Descending Salt Lake Center
Sun 11:22:39 AM 41.8347 -110.6611 268° West 441 507 31,300 -1,065 Descending Salt Lake Center
Sun 11:23:41 AM 41.8297 -110.8419 268° West 439 505 30,100 -634 Descending Salt Lake Center
Sun 11:24:42 AM 41.8256 -111.0022 268° West 441 507 30,000 -49 Descending Salt Lake Center
Sun 11:25:44 AM 41.8211 -111.1686 268° West 448 516 30,000  Level Salt Lake Center
Sun 11:26:46 AM 41.8161 -111.3328 268° West 447 514 30,000  Level Salt Lake Center
Sun 11:27:48 AM 41.8106 -111.4997 267° West 448 516 30,000 -1,024 Level Salt Lake Center
Sun 11:28:49 AM 41.8056 -111.6619 268° West 443 510 27,900 -2,829 Descending Salt Lake Center
Sun 11:29:51 AM 41.7969 -111.8594 267° West 444 511 24,200 -3,000 Descending Salt Lake Center
Sun 11:30:45 AM 41.7606 -111.9808 248° West 433 498 22,100 -2,529 Descending Salt Lake Center
Sun 11:31:33 AM 41.6639 -112.0256 199° South 445 512 19,900 -2,400 Descending Salt Lake Center
Sun 11:31:55 AM 41.6292 -112.0358 192° South 443 510 19,300 -1,279 Descending Salt Lake Center
Sun 11:32:34 AM 41.5450 -112.0461 185° South 430 495 18,600 -1,377 Descending Salt Lake Center
Sun 11:32:56 AM 41.5125 -112.0547 191° South 429 494 17,900 -1,636 Descending Salt Lake Center
Sun 11:33:29 AM 41.4406 -112.0619 184° South 413 475 17,100 -1,161 Descending Salt Lake Center
Sun 11:33:58 AM 41.3981 -112.0769 195° South 419 482 16,700 -1,164 Descending Salt Lake Center
Sun 11:34:36 AM 41.3114 -112.0947 189° South 415 478 15,800 -1,065 Descending Salt Lake Center
Sun 11:35:00 AM 41.2861 -112.1022 193° South 415 478 15,600 -1,100 Descending Salt Lake Center
Sun 11:35:36 AM 41.1978 -112.1192 188° South 409 471 14,700 -1,258 Descending Salt Lake Center
Sun 11:36:02 AM 41.1525 -112.1308 191° South 411 473 14,300 -1,082 Descending Salt Lake Center
Sun 11:36:37 AM 41.0839 -112.1436 188° South 400 460 13,600 -1,180 Descending Salt Lake Center
Sun 11:37:03 AM 41.0436 -112.1408 177° South 403 464 13,100 -1,475 Descending Salt Lake Center
Sun 11:37:38 AM 40.9772 -112.1256 170° South 387 445 12,100 -1,548 Descending Salt Lake Center
Sun 11:38:05 AM 40.9381 -112.1175 171° South 392 451 11,500 -1,180 Descending Salt Lake Center
Sun 11:38:39 AM 40.8744 -112.1067 173° South 373 429 10,900 -484 Descending Salt Lake Center
Sun 11:39:07 AM 40.8411 -112.1028 175° South 339 390 11,000  Climbing Salt Lake Center
Sun 11:39:40 AM 40.7886 -112.0958 174° South 240 276 10,900 -295 Descending Salt Lake Center
Sun 11:40:08 AM 40.7689 -112.0928 173° South 250 288 10,700 -900 Descending Salt Lake Center
Sun 11:40:40 AM 40.7228 -112.0900 177° South 228 262 10,000 -1,258 Descending Salt Lake Center
Sun 11:41:10 AM 40.6942 -112.0844 172° South 224 258 9,400 -984 Descending Salt Lake Center
Sun 11:41:41 AM 40.6617 -112.0850 181° South 224 258 9,000 -387 Descending Salt Lake Center
Sun 11:42:12 AM 40.6322 -112.0767 168° South 224 258 9,000 -218 Level Salt Lake Center
Sun 11:42:36 AM 40.6128 -112.0564 142° Southeast 221 254 8,800 -1,082 Descending Salt Lake Center
Sun 11:43:13 AM 40.6131 -112.0083 90° East 216 249 7,900 -1,574 Descending Salt Lake Center
Sun 11:43:37 AM 40.6250 -111.9872 53° Northeast 190 219 7,200 -1,258 Descending Salt Lake Center
Sun 11:44:15 AM 40.6558 -111.9811 North 192 221 6,600 -984 Descending Salt Lake Center
Sun 11:44:38 AM 40.6767 -111.9867 349° North 190 219 6,200 -968 Descending Salt Lake Center
Sun 11:45:17 AM 40.7078 -111.9872 359° North 190 219 5,600 -985 Descending Salt Lake Center
Sun 11:45:45 AM 40.7319 -111.9933 349° North 145 167 5,100 -787 Descending Salt Lake Center
Sun 11:46:18 AM 40.7472 -111.9917 North 144 166 4,800 -689 Descending Salt Lake Center
Sun 11:46:46 AM 40.7692 -111.9978 348° North 131 151 4,400 -581 Descending Salt Lake Center
Sun 11:47:20 AM 40.7842 -111.9961 North 136 157 4,200 -353 Descending Salt Lake Center

Login

Don't have an account? Register now (free) for customized features, flight alerts, and more!